createdAt,value
2023-05-05T00:00:34.387Z,2.6077
2023-05-05T00:01:37.389Z,2.6385
2023-05-05T00:02:40.393Z,2.6000
2023-05-05T00:03:43.394Z,2.5846
2023-05-05T00:04:46.224Z,2.6385
2023-05-05T00:05:49.178Z,2.7538
2023-05-05T00:06:52.140Z,2.7000
2023-05-05T00:07:55.092Z,2.6692
2023-05-05T00:08:58.018Z,2.6538
2023-05-05T00:10:00.989Z,2.4923
2023-05-05T00:11:03.935Z,2.7846
2023-05-05T00:12:06.886Z,2.3769
2023-05-05T00:13:09.866Z,2.6923
2023-05-05T00:14:12.806Z,2.5308
2023-05-05T00:15:15.893Z,2.7231
2023-05-05T00:16:18.700Z,2.5308
2023-05-05T00:17:21.660Z,2.5846
2023-05-05T00:18:24.640Z,2.8308
2023-05-05T00:19:27.570Z,2.6538
2023-05-05T00:20:30.529Z,2.6769
2023-05-05T00:21:33.459Z,2.6538
2023-05-05T00:22:36.441Z,2.8615
2023-05-05T00:23:39.365Z,2.4154
2023-05-05T00:24:42.354Z,2.4462
2023-05-05T00:25:45.297Z,2.6538
2023-05-05T00:26:48.237Z,2.6077
2023-05-05T00:27:51.176Z,2.4308
2023-05-05T00:28:54.187Z,2.6538
2023-05-05T00:29:57.078Z,2.4923
2023-05-05T00:31:00.067Z,2.5615
2023-05-05T00:32:02.972Z,2.7692
2023-05-05T00:33:05.972Z,2.6231
2023-05-05T00:34:08.875Z,2.7000
2023-05-05T00:35:11.873Z,2.7923
2023-05-05T00:36:14.797Z,2.6154
2023-05-05T00:37:17.729Z,2.4769
2023-05-05T00:38:20.715Z,2.5385
2023-05-05T00:39:23.655Z,2.5923
2023-05-05T00:40:26.594Z,2.5615
2023-05-05T00:41:29.550Z,2.5692
2023-05-05T00:42:32.480Z,2.5308
2023-05-05T00:43:35.463Z,2.3308
2023-05-05T00:44:38.402Z,2.6000
2023-05-05T00:45:41.365Z,2.8077
2023-05-05T00:46:44.380Z,2.7308
2023-05-05T00:47:47.240Z,2.5692
2023-05-05T00:48:50.195Z,2.5000
2023-05-05T00:49:53.182Z,2.5769
2023-05-05T00:50:56.085Z,2.6769
2023-05-05T00:51:59.048Z,2.6538
2023-05-05T00:53:01.987Z,2.8000
2023-05-05T00:54:04.942Z,2.8000
2023-05-05T00:55:07.911Z,2.6538
2023-05-05T00:56:10.850Z,2.4923
2023-05-05T00:57:13.789Z,2.6000
2023-05-05T00:58:16.731Z,2.8769
2023-05-05T00:59:19.685Z,2.8462
2023-05-05T01:00:22.627Z,2.5846
2023-05-05T01:01:25.668Z,2.7000
2023-05-05T01:02:28.623Z,2.6231
2023-05-05T01:03:31.538Z,2.6077
2023-05-05T01:04:34.469Z,2.5462
2023-05-05T01:05:37.439Z,2.5769
2023-05-05T01:06:40.392Z,2.5769
2023-05-05T01:07:43.354Z,2.6231
2023-05-05T01:08:46.316Z,2.7154
2023-05-05T01:09:53.412Z,2.6231
2023-05-05T01:10:52.216Z,2.5846
2023-05-05T01:11:55.171Z,2.6000
2023-05-05T01:12:58.169Z,2.6538
2023-05-05T01:14:01.074Z,2.5538
2023-05-05T01:15:04.034Z,2.6538
2023-05-05T01:16:07.177Z,2.6462
2023-05-05T01:17:09.990Z,2.5769
2023-05-05T01:18:12.922Z,2.6000
2023-05-05T01:19:15.871Z,2.4692
2023-05-05T01:20:18.811Z,2.3462
2023-05-05T01:21:21.779Z,2.4846
2023-05-05T01:22:24.765Z,2.4538
2023-05-05T01:23:27.712Z,2.4538
2023-05-05T01:24:30.630Z,2.3231
2023-05-05T01:25:33.596Z,2.5077
2023-05-05T01:26:36.541Z,2.5308
2023-05-05T01:27:39.547Z,2.4308
2023-05-05T01:28:42.547Z,2.2231
2023-05-05T01:29:45.428Z,2.3769
2023-05-05T01:30:48.387Z,2.2846
2023-05-05T01:31:51.402Z,2.3385
2023-05-05T01:32:54.293Z,2.2692
2023-05-05T01:33:57.273Z,2.6231
2023-05-05T01:35:00.208Z,2.4769
2023-05-05T01:36:03.246Z,2.4615
2023-05-05T01:37:06.125Z,2.5000
2023-05-05T01:38:09.088Z,2.4923
2023-05-05T01:39:12.041Z,2.5154
2023-05-05T01:40:14.990Z,2.4615
2023-05-05T01:41:17.946Z,2.5231
2023-05-05T01:42:20.918Z,2.6462
2023-05-05T01:43:23.864Z,2.4923
2023-05-05T01:44:26.812Z,2.4154
2023-05-05T01:45:29.821Z,2.6462
2023-05-05T01:46:32.770Z,2.6385
2023-05-05T01:47:35.686Z,2.7231
2023-05-05T01:48:39.750Z,2.3308
2023-05-05T01:49:41.606Z,2.4154
2023-05-05T01:50:44.559Z,2.4538
2023-05-05T01:51:47.553Z,2.4308
2023-05-05T01:52:50.490Z,2.5385
2023-05-05T01:53:53.455Z,2.4923
2023-05-05T01:54:56.384Z,2.3923
2023-05-05T01:55:59.390Z,2.5769
2023-05-05T01:57:02.475Z,2.3154
2023-05-05T01:58:05.260Z,2.5077
2023-05-05T01:59:08.210Z,2.4615
2023-05-05T02:00:11.278Z,2.3538
2023-05-05T02:01:14.163Z,2.4615
2023-05-05T02:02:17.113Z,2.5846
2023-05-05T02:03:20.177Z,2.4692
2023-05-05T02:04:23.017Z,2.2154
2023-05-05T02:05:25.976Z,2.4077
2023-05-05T02:06:28.907Z,2.3154
2023-05-05T02:07:31.849Z,2.3923
2023-05-05T02:08:34.812Z,2.5385
2023-05-05T02:09:37.778Z,2.6769
2023-05-05T02:10:40.720Z,2.4231
2023-05-05T02:11:43.698Z,2.3923
2023-05-05T02:12:46.791Z,2.4615
2023-05-05T02:13:49.598Z,2.6231
2023-05-05T02:14:52.566Z,2.5231
2023-05-05T02:15:55.512Z,2.5231
2023-05-05T02:16:58.472Z,2.3615
2023-05-05T02:18:01.440Z,2.3846
2023-05-05T02:19:04.378Z,2.1692
2023-05-05T02:20:07.505Z,2.4231
2023-05-05T02:21:10.267Z,2.4385
2023-05-05T02:22:13.228Z,2.4231
2023-05-05T02:23:16.184Z,2.5000
2023-05-05T02:24:19.173Z,2.4231
2023-05-05T02:25:22.086Z,2.4923
2023-05-05T02:26:25.049Z,2.3692
2023-05-05T02:27:28.051Z,2.4385
2023-05-05T02:28:30.974Z,2.5385
2023-05-05T02:29:33.916Z,2.3000
2023-05-05T02:30:36.925Z,2.3077
2023-05-05T02:31:39.886Z,2.3077
2023-05-05T02:32:42.827Z,2.4846
2023-05-05T02:33:45.740Z,2.4385
2023-05-05T02:34:48.733Z,2.3385
2023-05-05T02:35:51.665Z,2.4231
2023-05-05T02:36:54.637Z,2.4231
2023-05-05T02:37:57.582Z,2.4692
2023-05-05T02:39:00.503Z,2.6077
2023-05-05T02:40:03.474Z,2.3385
2023-05-05T02:41:06.443Z,2.3077
2023-05-05T02:42:09.376Z,2.4538
2023-05-05T02:43:12.363Z,2.4538
2023-05-05T02:44:15.297Z,2.4077
2023-05-05T02:45:18.276Z,2.2846
2023-05-05T02:46:21.269Z,2.2538
2023-05-05T02:47:24.180Z,2.2692
2023-05-05T02:48:27.136Z,2.4000
2023-05-05T02:49:30.078Z,2.2923
2023-05-05T02:50:33.018Z,2.1538
2023-05-05T02:51:35.959Z,2.2385
2023-05-05T02:52:38.947Z,2.1308
2023-05-05T02:53:41.963Z,2.1923
2023-05-05T02:54:44.845Z,2.2462
2023-05-05T02:55:47.782Z,2.2308
2023-05-05T02:56:50.793Z,2.1462
2023-05-05T02:57:53.698Z,2.2846
2023-05-05T02:58:56.669Z,2.0615
2023-05-05T02:59:59.618Z,2.2615
2023-05-05T03:01:02.632Z,2.2308
2023-05-05T03:02:05.582Z,2.2923
2023-05-05T03:03:08.541Z,2.3000
2023-05-05T03:04:11.427Z,2.2154
2023-05-05T03:05:14.396Z,2.3615
2023-05-05T03:06:17.409Z,2.3538
2023-05-05T03:07:20.329Z,2.2692
2023-05-05T03:08:23.262Z,2.5769
2023-05-05T03:09:26.204Z,2.4538
2023-05-05T03:10:29.166Z,2.4769
2023-05-05T03:11:32.128Z,2.3154
2023-05-05T03:12:35.124Z,2.3923
2023-05-05T03:13:38.033Z,2.2846
2023-05-05T03:14:41.021Z,2.3231
2023-05-05T03:15:43.946Z,2.3538
2023-05-05T03:16:46.943Z,2.3769
2023-05-05T03:17:49.913Z,2.2000
2023-05-05T03:18:52.918Z,2.1077
2023-05-05T03:19:55.777Z,2.3462
2023-05-05T03:20:58.713Z,2.3538
2023-05-05T03:22:01.699Z,2.3538
2023-05-05T03:23:04.633Z,2.4462
2023-05-05T03:24:07.609Z,2.3231
2023-05-05T03:25:10.790Z,2.4231
2023-05-05T03:26:13.527Z,2.2538
2023-05-05T03:27:16.509Z,2.3615
2023-05-05T03:28:19.437Z,2.3308
2023-05-05T03:29:22.425Z,2.4538
2023-05-05T03:30:25.346Z,2.3077
2023-05-05T03:31:28.400Z,2.2462
2023-05-05T03:32:31.284Z,2.3000
2023-05-05T03:33:34.230Z,2.3923
2023-05-05T03:34:37.474Z,2.3077
2023-05-05T03:35:40.137Z,2.3923
2023-05-05T03:36:43.097Z,2.1538
2023-05-05T03:37:46.096Z,2.2538
2023-05-05T03:38:49.010Z,2.1000
2023-05-05T03:39:51.979Z,2.0923
2023-05-05T03:40:54.925Z,2.1231
2023-05-05T03:41:57.915Z,2.1231
2023-05-05T03:43:00.841Z,2.4615
2023-05-05T03:44:03.807Z,2.2692
2023-05-05T03:45:06.750Z,2.0615
2023-05-05T03:46:09.729Z,2.1846
2023-05-05T03:47:12.677Z,2.1538
2023-05-05T03:48:15.696Z,2.2538
2023-05-05T03:49:18.657Z,2.1615
2023-05-05T03:50:21.618Z,2.2231
2023-05-05T03:51:24.562Z,2.0923
2023-05-05T03:52:27.517Z,2.2385
2023-05-05T03:53:30.506Z,2.3769
2023-05-05T03:54:33.470Z,2.1769
2023-05-05T03:55:36.525Z,2.2692
2023-05-05T03:56:39.374Z,2.2462
2023-05-05T03:57:42.339Z,2.4231
2023-05-05T03:58:45.276Z,2.3000
2023-05-05T03:59:48.218Z,2.3154
2023-05-05T04:00:51.179Z,2.3692
2023-05-05T04:01:54.180Z,2.2231
2023-05-05T04:02:57.187Z,2.1615
2023-05-05T04:04:00.119Z,2.2385
2023-05-05T04:05:03.007Z,2.0231
2023-05-05T04:06:06.046Z,2.1538
2023-05-05T04:07:08.973Z,2.2000
2023-05-05T04:08:11.898Z,2.0692
2023-05-05T04:09:14.847Z,2.2692
2023-05-05T04:10:17.858Z,2.2077
2023-05-05T04:11:20.750Z,2.2154
2023-05-05T04:12:23.713Z,2.1308
2023-05-05T04:13:26.701Z,2.1231
2023-05-05T04:14:29.648Z,2.3077
2023-05-05T04:15:32.586Z,2.1462
2023-05-05T04:16:35.534Z,2.1923
2023-05-05T04:17:38.541Z,2.2231
2023-05-05T04:18:41.469Z,2.2615
2023-05-05T04:19:44.446Z,2.2538
2023-05-05T04:20:47.380Z,2.2923
2023-05-05T04:21:50.550Z,2.4000
2023-05-05T04:22:53.368Z,2.4000
2023-05-05T04:23:56.290Z,2.3923
2023-05-05T04:24:59.275Z,2.2769
2023-05-05T04:26:02.165Z,2.4308
2023-05-05T04:27:05.124Z,2.4615
2023-05-05T04:28:08.061Z,2.3769
2023-05-05T04:29:11.008Z,2.5077
2023-05-05T04:30:14.026Z,2.2769
2023-05-05T04:31:16.965Z,2.3846
2023-05-05T04:32:19.875Z,2.2923
2023-05-05T04:33:22.823Z,2.1846
2023-05-05T04:34:25.758Z,2.3615
2023-05-05T04:35:28.738Z,2.4231
2023-05-05T04:36:31.670Z,2.4000
2023-05-05T04:37:34.623Z,2.4000
2023-05-05T04:38:37.648Z,2.2615
2023-05-05T04:39:40.522Z,2.4231
2023-05-05T04:40:43.452Z,2.4923
2023-05-05T04:41:46.418Z,2.4154
2023-05-05T04:42:49.368Z,2.4154
2023-05-05T04:43:52.336Z,2.4154
2023-05-05T04:44:55.266Z,2.4692
2023-05-05T04:45:58.216Z,2.3923
2023-05-05T04:47:01.170Z,2.2231
2023-05-05T04:48:04.167Z,2.5462
2023-05-05T04:49:07.040Z,2.2538
2023-05-05T04:50:10.245Z,2.4231
2023-05-05T04:51:13.029Z,2.5846
2023-05-05T04:52:15.916Z,2.5385
2023-05-05T04:53:18.840Z,2.2308
2023-05-05T04:54:21.850Z,2.3846
2023-05-05T04:55:24.763Z,2.6385
2023-05-05T04:56:27.696Z,2.4462
2023-05-05T04:57:30.654Z,2.5846
2023-05-05T04:58:33.619Z,2.5538
2023-05-05T04:59:36.530Z,2.5769
2023-05-05T05:00:39.464Z,2.3385
2023-05-05T05:01:42.439Z,2.5154
2023-05-05T05:02:45.520Z,2.5615
2023-05-05T05:03:48.419Z,2.6538
2023-05-05T05:04:51.263Z,2.4154
2023-05-05T05:05:54.247Z,2.5231
2023-05-05T05:06:59.111Z,2.6154
2023-05-05T05:08:00.135Z,2.6846
2023-05-05T05:09:03.045Z,2.6692
2023-05-05T05:10:06.214Z,2.6000
2023-05-05T05:11:08.939Z,2.6077
2023-05-05T05:12:11.895Z,2.4000
2023-05-05T05:13:14.861Z,2.3462
2023-05-05T05:14:17.830Z,2.3615
2023-05-05T05:15:20.754Z,2.3923
2023-05-05T05:16:23.741Z,2.3692
2023-05-05T05:17:26.898Z,2.3692
2023-05-05T05:18:29.579Z,2.4385
2023-05-05T05:19:32.538Z,9.6462
2023-05-05T05:20:35.596Z,4.0462
2023-05-05T05:21:38.445Z,3.1692
2023-05-05T05:22:41.433Z,3.2923
2023-05-05T05:23:44.304Z,2.7923
2023-05-05T05:24:47.260Z,2.5308
2023-05-05T05:25:50.215Z,2.7000
2023-05-05T05:26:53.144Z,2.5538
2023-05-05T05:28:08.964Z,2.4846
2023-05-05T05:28:59.033Z,2.4385
2023-05-05T05:30:02.008Z,2.5692
2023-05-05T05:31:05.127Z,2.6385
2023-05-05T05:32:07.948Z,2.6154
2023-05-05T05:33:10.906Z,2.7231
2023-05-05T05:34:13.777Z,2.7769
2023-05-05T05:35:16.783Z,2.7385
2023-05-05T05:36:19.698Z,3.1692
2023-05-05T05:37:22.726Z,4.1000
2023-05-05T05:38:25.572Z,4.2231
2023-05-05T05:39:28.576Z,2.9769
2023-05-05T05:40:31.528Z,2.7846
2023-05-05T05:41:34.485Z,2.4462
2023-05-05T05:42:37.374Z,2.5615
2023-05-05T05:43:40.324Z,2.3231
2023-05-05T05:44:43.260Z,2.6077
2023-05-05T05:45:46.202Z,2.7154
2023-05-05T05:46:49.159Z,2.5769
2023-05-05T05:47:52.186Z,2.5538
2023-05-05T05:48:55.067Z,4.5231
2023-05-05T05:49:58.132Z,2.9538
2023-05-05T05:51:00.920Z,2.6615
2023-05-05T05:52:03.854Z,2.6462
2023-05-05T05:53:06.926Z,2.5769
2023-05-05T05:54:09.770Z,2.7692
2023-05-05T05:55:12.881Z,2.7769
2023-05-05T05:56:15.822Z,2.5000
2023-05-05T05:57:18.698Z,2.7462
2023-05-05T05:58:21.569Z,2.7077
2023-05-05T05:59:24.623Z,2.7462
2023-05-05T06:00:27.553Z,2.7154
2023-05-05T06:01:30.448Z,3.4000
2023-05-05T06:02:33.473Z,2.7846
2023-05-05T06:03:36.394Z,3.0846
2023-05-05T06:04:39.324Z,2.8692
2023-05-05T06:05:42.221Z,2.8615
2023-05-05T06:06:45.213Z,2.7538
2023-05-05T06:07:48.154Z,2.5385
2023-05-05T06:08:51.065Z,2.6385
2023-05-05T06:09:53.988Z,2.7077
2023-05-05T06:10:56.938Z,2.6692
2023-05-05T06:11:59.860Z,2.4692
2023-05-05T06:13:02.840Z,2.7692
2023-05-05T06:14:05.755Z,2.6615
2023-05-05T06:15:08.753Z,2.7923
2023-05-05T06:16:11.754Z,2.9923
2023-05-05T06:17:14.663Z,2.8846
2023-05-05T06:18:17.640Z,2.7615
2023-05-05T06:19:20.488Z,2.6385
2023-05-05T06:20:23.442Z,2.5692
2023-05-05T06:21:26.471Z,2.7923
2023-05-05T06:22:29.327Z,2.4692
2023-05-05T06:23:32.337Z,2.5077
2023-05-05T06:24:35.233Z,2.5462
2023-05-05T06:25:38.202Z,2.3077
2023-05-05T06:26:41.147Z,2.3692
2023-05-05T06:27:44.092Z,2.4538
2023-05-05T06:28:47.062Z,2.5923
2023-05-05T06:29:49.983Z,2.3462
2023-05-05T06:30:53.038Z,2.5077
2023-05-05T06:31:55.910Z,2.6769
2023-05-05T06:32:58.912Z,2.5692
2023-05-05T06:34:01.926Z,2.5231
2023-05-05T06:35:04.724Z,2.4846
2023-05-05T06:36:07.860Z,2.5462
2023-05-05T06:37:10.650Z,2.4231
2023-05-05T06:38:13.584Z,2.3923
2023-05-05T06:39:16.514Z,2.6077
2023-05-05T06:40:19.611Z,2.7077
2023-05-05T06:41:22.411Z,2.7154
2023-05-05T06:42:25.432Z,2.7462
2023-05-05T06:43:28.306Z,2.5308
2023-05-05T06:44:31.463Z,2.5769
2023-05-05T06:45:34.163Z,2.6385
2023-05-05T06:46:37.150Z,2.8385
2023-05-05T06:47:40.154Z,2.5538
2023-05-05T06:48:43.031Z,2.4231
2023-05-05T06:49:45.990Z,2.7923
2023-05-05T06:50:49.144Z,2.7077
2023-05-05T06:51:51.998Z,2.5462
2023-05-05T06:52:54.838Z,2.6000
2023-05-05T06:53:57.796Z,2.5462
2023-05-05T06:55:00.760Z,2.8462
2023-05-05T06:56:03.686Z,2.6231
2023-05-05T06:57:06.724Z,2.6000
2023-05-05T06:58:09.677Z,2.8308
2023-05-05T06:59:12.566Z,2.5769
2023-05-05T07:00:15.516Z,2.8385
2023-05-05T07:01:18.533Z,2.8923
2023-05-05T07:02:21.356Z,2.7692
2023-05-05T07:03:24.327Z,2.6769
2023-05-05T07:04:27.279Z,2.9000
2023-05-05T07:05:30.218Z,2.8538
2023-05-05T07:06:33.207Z,2.8077
2023-05-05T07:07:36.088Z,2.5923
2023-05-05T07:08:39.043Z,2.6308
2023-05-05T07:09:41.977Z,2.5769
2023-05-05T07:10:44.966Z,2.7077
2023-05-05T07:11:47.884Z,2.6538
2023-05-05T07:12:50.811Z,2.5923
2023-05-05T07:13:53.888Z,2.4615
2023-05-05T07:14:56.778Z,2.4692
2023-05-05T07:15:59.787Z,2.5846
2023-05-05T07:17:02.601Z,2.6231
2023-05-05T07:18:05.654Z,2.6385
2023-05-05T07:19:08.500Z,2.6000
2023-05-05T07:20:11.470Z,2.4846
2023-05-05T07:21:14.416Z,2.3000
2023-05-05T07:22:17.364Z,2.3923
2023-05-05T07:23:20.273Z,2.5462
2023-05-05T07:24:23.272Z,2.2615
2023-05-05T07:25:26.204Z,2.5538
2023-05-05T07:26:29.178Z,2.5077
2023-05-05T07:27:32.056Z,2.7077
2023-05-05T07:28:35.017Z,2.4538
2023-05-05T07:29:37.975Z,2.3000
2023-05-05T07:30:40.888Z,2.2538
2023-05-05T07:31:43.904Z,2.2615
2023-05-05T07:32:46.825Z,2.2692
2023-05-05T07:33:49.837Z,2.3000
2023-05-05T07:34:52.727Z,2.1538
2023-05-05T07:35:55.623Z,2.3923
2023-05-05T07:36:58.599Z,2.1769
2023-05-05T07:38:01.541Z,1.9692
2023-05-05T07:39:04.534Z,2.1154
2023-05-05T07:40:07.577Z,2.2000
2023-05-05T07:41:10.380Z,2.0615
2023-05-05T07:42:13.292Z,1.9385
2023-05-05T07:43:16.357Z,2.1692
2023-05-05T07:44:19.192Z,2.1538
2023-05-05T07:45:22.152Z,2.1385
2023-05-05T07:46:25.148Z,2.2000
2023-05-05T07:47:28.195Z,2.0769
2023-05-05T07:48:31.024Z,2.3462
2023-05-05T07:49:34.018Z,2.2769
2023-05-05T07:50:36.907Z,2.3769
2023-05-05T07:51:39.843Z,2.4308
2023-05-05T07:52:46.820Z,2.5077
2023-05-05T07:53:45.805Z,2.5000
2023-05-05T07:54:48.677Z,2.3692
2023-05-05T07:55:51.742Z,2.1923
2023-05-05T07:56:54.653Z,2.3000
2023-05-05T07:57:57.590Z,2.4000
2023-05-05T07:59:00.557Z,2.2692
2023-05-05T08:00:03.501Z,2.4308
2023-05-05T08:01:06.483Z,2.6462
2023-05-05T08:02:09.634Z,3.2769
2023-05-05T08:03:12.552Z,2.8231
2023-05-05T08:04:15.335Z,2.5462
2023-05-05T08:05:18.253Z,2.1538
2023-05-05T08:06:21.198Z,2.0615
2023-05-05T08:07:24.184Z,2.1462
2023-05-05T08:08:27.097Z,2.1846
2023-05-05T08:09:30.055Z,2.0385
2023-05-05T08:10:33.002Z,2.0692
2023-05-05T08:11:35.956Z,2.0308
2023-05-05T08:12:39.004Z,2.0769
2023-05-05T08:13:41.888Z,1.9923
2023-05-05T08:14:44.825Z,1.9231
2023-05-05T08:15:47.858Z,1.8077
2023-05-05T08:16:50.705Z,1.9615
2023-05-05T08:17:53.711Z,1.9077
2023-05-05T08:18:56.675Z,1.8385
2023-05-05T08:19:59.569Z,1.9154
2023-05-05T08:21:02.537Z,1.7923
2023-05-05T08:22:05.473Z,1.9154
2023-05-05T08:23:08.456Z,1.8615
2023-05-05T08:24:11.406Z,1.8538
2023-05-05T08:25:14.336Z,1.7462
2023-05-05T08:26:17.413Z,1.8462
2023-05-05T08:27:20.225Z,1.8000
2023-05-05T08:28:23.235Z,1.7538
2023-05-05T08:29:26.205Z,1.6385
2023-05-05T08:30:29.082Z,1.7923
2023-05-05T08:31:32.074Z,1.8692
2023-05-05T08:32:35.170Z,1.7923
2023-05-05T08:33:37.965Z,1.8154
2023-05-05T08:34:41.009Z,1.9231
2023-05-05T08:35:43.846Z,1.7077
2023-05-05T08:36:46.807Z,1.8769
2023-05-05T08:37:49.743Z,1.9385
2023-05-05T08:38:52.688Z,1.7385
2023-05-05T08:39:55.643Z,1.8308
2023-05-05T08:40:58.698Z,1.9769
2023-05-05T08:42:01.653Z,1.9154
2023-05-05T08:43:04.522Z,2.0846
2023-05-05T08:44:07.456Z,2.0385
2023-05-05T08:45:10.926Z,2.0000
2023-05-05T08:46:13.554Z,2.1385
2023-05-05T08:47:16.357Z,2.1077
2023-05-05T08:48:19.367Z,2.0538
2023-05-05T08:49:22.378Z,1.9538
2023-05-05T08:50:25.267Z,2.0923
2023-05-05T08:51:28.133Z,1.9308
2023-05-05T08:52:31.174Z,2.0308
2023-05-05T08:53:34.039Z,1.9846
2023-05-05T08:54:36.981Z,1.9769
2023-05-05T08:55:39.965Z,2.0000
2023-05-05T08:56:42.912Z,2.1231
2023-05-05T08:57:45.830Z,2.0462
2023-05-05T08:58:48.802Z,2.0538
2023-05-05T08:59:51.769Z,2.1000
2023-05-05T09:00:54.757Z,2.1769
2023-05-05T09:01:57.690Z,1.9538
2023-05-05T09:03:00.854Z,2.0692
2023-05-05T09:04:03.572Z,1.8692
2023-05-05T09:05:06.825Z,1.9846
2023-05-05T09:06:09.641Z,1.9000
2023-05-05T09:07:12.459Z,2.0077
2023-05-05T09:08:15.422Z,1.7000
2023-05-05T09:09:18.339Z,1.9308
2023-05-05T09:10:21.391Z,1.7923
2023-05-05T09:11:24.280Z,1.6462
2023-05-05T09:12:27.183Z,1.6385
2023-05-05T09:13:30.142Z,1.5231
2023-05-05T09:14:33.083Z,1.5692
2023-05-05T09:15:36.076Z,3.0308
2023-05-05T09:16:38.969Z,5.3846
2023-05-05T09:17:42.071Z,3.1385
2023-05-05T09:18:44.878Z,1.8462
2023-05-05T09:19:47.835Z,1.7462
2023-05-05T09:20:50.799Z,1.7462
2023-05-05T09:21:53.794Z,1.8000
2023-05-05T09:22:56.717Z,1.8231
2023-05-05T09:24:04.919Z,1.9000
2023-05-05T09:25:02.614Z,1.7538
2023-05-05T09:26:05.572Z,1.7154
2023-05-05T09:27:08.539Z,1.9769
2023-05-05T09:28:11.501Z,1.8615
2023-05-05T09:29:14.417Z,1.7692
2023-05-05T09:30:17.569Z,1.9538
2023-05-05T09:31:20.371Z,1.9923
2023-05-05T09:32:23.322Z,1.9615
2023-05-05T09:33:26.534Z,2.0000
2023-05-05T09:34:29.186Z,1.9385
2023-05-05T09:35:32.141Z,2.0154
2023-05-05T09:36:35.118Z,1.8769
2023-05-05T09:37:38.187Z,1.8769
2023-05-05T09:38:41.002Z,1.7769
2023-05-05T09:39:43.950Z,1.9077
2023-05-05T09:40:46.900Z,1.8538
2023-05-05T09:41:49.910Z,1.6769
2023-05-05T09:42:52.812Z,1.8231
2023-05-05T09:43:55.746Z,1.6231
2023-05-05T09:45:00.042Z,1.6846
2023-05-05T09:46:01.764Z,1.8538
2023-05-05T09:47:09.464Z,1.9231
2023-05-05T09:48:07.585Z,1.8231
2023-05-05T09:49:10.554Z,1.7769
2023-05-05T09:50:13.495Z,1.8769
2023-05-05T09:51:16.500Z,1.7462
2023-05-05T09:52:19.409Z,1.7385
2023-05-05T09:53:22.447Z,1.9538
2023-05-05T09:54:25.338Z,2.4769
2023-05-05T09:55:28.237Z,2.4538
2023-05-05T09:56:31.199Z,2.0692
2023-05-05T09:57:34.164Z,2.1923
2023-05-05T09:58:37.173Z,2.4231
2023-05-05T09:59:40.147Z,1.9077
2023-05-05T10:00:43.025Z,1.9000
2023-05-05T10:01:45.997Z,1.8077
2023-05-05T10:02:48.955Z,2.3000
2023-05-05T10:03:51.902Z,6.6769
2023-05-05T10:04:54.873Z,2.0385
2023-05-05T10:05:57.824Z,2.1077
2023-05-05T10:07:00.754Z,3.1000
2023-05-05T10:08:03.722Z,7.5000
2023-05-05T10:09:06.636Z,3.2923
2023-05-05T10:10:09.994Z,2.2308
2023-05-05T10:11:12.590Z,2.0308
2023-05-05T10:12:15.551Z,2.0846
2023-05-05T10:13:18.652Z,1.9692
2023-05-05T10:14:21.399Z,1.9000
2023-05-05T10:15:24.521Z,1.8538
2023-05-05T10:16:28.613Z,1.7231
2023-05-05T10:17:30.297Z,1.6308
2023-05-05T10:18:33.226Z,1.9000
2023-05-05T10:19:36.204Z,1.8077
2023-05-05T10:20:39.180Z,1.9923
2023-05-05T10:21:42.324Z,1.8231
2023-05-05T10:22:45.055Z,1.7923
2023-05-05T10:23:48.033Z,1.9462
2023-05-05T10:24:50.914Z,1.6462
2023-05-05T10:25:53.899Z,1.7385
2023-05-05T10:26:56.875Z,1.7846
2023-05-05T10:27:59.785Z,1.7308
2023-05-05T10:29:02.743Z,1.7462
2023-05-05T10:30:05.791Z,1.7538
2023-05-05T10:31:23.955Z,1.5615
2023-05-05T10:32:33.577Z,1.5538
2023-05-05T10:33:31.207Z,1.8692
2023-05-05T10:34:17.553Z,1.8154
2023-05-05T10:35:20.485Z,1.9692
2023-05-05T10:36:24.472Z,1.7923
2023-05-05T10:37:26.415Z,2.1231
2023-05-05T10:38:29.367Z,2.1692
2023-05-05T10:39:32.316Z,1.7538
2023-05-05T10:40:35.429Z,1.7846
2023-05-05T10:41:38.246Z,1.6923
2023-05-05T10:42:41.191Z,22.5385
2023-05-05T10:43:44.148Z,44.2231
2023-05-05T10:44:47.151Z,42.6846
2023-05-05T10:45:50.181Z,8.3615
2023-05-05T10:46:53.042Z,9.5385
2023-05-05T10:47:56.026Z,6.5000
2023-05-05T10:48:58.981Z,8.0769
2023-05-05T10:50:01.934Z,14.2615
2023-05-05T10:51:04.918Z,17.8846
2023-05-05T10:52:07.952Z,14.4462
2023-05-05T10:53:10.828Z,14.5769
2023-05-05T10:54:13.836Z,12.5846
2023-05-05T10:55:16.765Z,3.7923
2023-05-05T10:56:19.790Z,10.4923
2023-05-05T10:57:22.655Z,6.6923
2023-05-05T10:58:25.812Z,4.6231
2023-05-05T10:59:28.680Z,2.2000
2023-05-05T11:00:31.811Z,1.8231
2023-05-05T11:01:34.940Z,1.8000
2023-05-05T11:02:38.008Z,1.7231
2023-05-05T11:03:40.534Z,2.6538
2023-05-05T11:04:43.511Z,8.2077
2023-05-05T11:05:46.408Z,7.3231
2023-05-05T11:06:49.636Z,3.7692
2023-05-05T11:07:52.377Z,3.4846
2023-05-05T11:08:55.447Z,1.7538
2023-05-05T11:09:58.284Z,2.2538
2023-05-05T11:11:01.287Z,7.3231
2023-05-05T11:12:04.348Z,2.4231
2023-05-05T11:13:07.184Z,1.5154
2023-05-05T11:14:10.110Z,1.5385
2023-05-05T11:15:13.084Z,1.5615
2023-05-05T11:16:16.067Z,1.6231
2023-05-05T11:17:19.056Z,1.9692
2023-05-05T11:18:21.978Z,1.4077
2023-05-05T11:19:24.902Z,5.4769
2023-05-05T11:20:27.897Z,6.3154
2023-05-05T11:21:30.838Z,1.6615
2023-05-05T11:22:33.803Z,1.7154
2023-05-05T11:23:36.781Z,2.0154
2023-05-05T11:24:39.746Z,2.1308
2023-05-05T11:25:42.691Z,4.0923
2023-05-05T11:26:45.648Z,3.2077
2023-05-05T11:27:48.689Z,3.3077
2023-05-05T11:28:51.616Z,1.6692
2023-05-05T11:29:54.546Z,1.7615
2023-05-05T11:30:58.229Z,1.9000
2023-05-05T11:32:00.457Z,1.6308
2023-05-05T11:33:03.488Z,1.6077
2023-05-05T11:34:06.368Z,6.6000
2023-05-05T11:35:09.358Z,5.3231
2023-05-05T11:36:12.347Z,3.6692
2023-05-05T11:37:15.252Z,4.5231
2023-05-05T11:38:18.205Z,2.9231
2023-05-05T11:39:21.182Z,5.8308
2023-05-05T11:40:24.135Z,1.6538
2023-05-05T11:41:27.114Z,1.6538
2023-05-05T11:42:30.039Z,4.7000
2023-05-05T11:43:33.129Z,6.7231
2023-05-05T11:44:36.132Z,9.0308
2023-05-05T11:45:38.942Z,4.4154
2023-05-05T11:46:41.871Z,7.3231
2023-05-05T11:47:44.905Z,7.9154
2023-05-05T11:48:47.791Z,4.2154
2023-05-05T11:49:52.096Z,7.8308
2023-05-05T11:51:09.587Z,10.8273
2023-05-05T11:52:04.793Z,6.6400
2023-05-05T11:52:59.621Z,2.8083
2023-05-05T11:54:02.669Z,5.7154
2023-05-05T11:55:05.545Z,9.2385
2023-05-05T11:56:08.698Z,8.3231
2023-05-05T11:57:11.460Z,4.0308
2023-05-05T11:58:14.468Z,12.8154
2023-05-05T11:59:17.416Z,11.4615
2023-05-05T12:00:20.501Z,4.2538
2023-05-05T12:01:23.330Z,3.2923
2023-05-05T12:02:26.381Z,2.1462
2023-05-05T12:03:29.392Z,1.8538
2023-05-05T12:04:32.393Z,1.8385
2023-05-05T12:05:36.714Z,2.1231
2023-05-05T12:06:38.138Z,5.4231
2023-05-05T12:07:41.102Z,5.8538
2023-05-05T12:08:44.055Z,10.2231
2023-05-05T12:09:47.043Z,8.2308
2023-05-05T12:10:50.009Z,2.2385
2023-05-05T12:11:52.941Z,2.5385
2023-05-05T12:12:56.107Z,5.3846
2023-05-05T12:13:58.864Z,4.2615
2023-05-05T12:15:01.894Z,4.8000
2023-05-05T12:16:04.858Z,4.3077
2023-05-05T12:17:07.774Z,4.8385
2023-05-05T12:18:10.737Z,1.9000
2023-05-05T12:19:13.701Z,2.6000
2023-05-05T12:20:16.648Z,4.6000
2023-05-05T12:21:19.599Z,4.5692
2023-05-05T12:22:22.558Z,4.8462
2023-05-05T12:23:25.523Z,6.4000
2023-05-05T12:24:28.520Z,5.8769
2023-05-05T12:25:31.573Z,2.7538
2023-05-05T12:26:34.511Z,2.0154
2023-05-05T12:27:37.353Z,4.4692
2023-05-05T12:28:40.293Z,5.1692
2023-05-05T12:29:43.299Z,2.3846
2023-05-05T12:30:46.353Z,5.6077
2023-05-05T12:31:49.268Z,11.7154
2023-05-05T12:32:52.310Z,2.5923
2023-05-05T12:33:55.268Z,8.2846
2023-05-05T12:34:58.076Z,2.6462
2023-05-05T12:36:01.002Z,3.9308
2023-05-05T12:37:03.960Z,6.1846
2023-05-05T12:38:06.954Z,10.2615
2023-05-05T12:39:09.896Z,7.2615
2023-05-05T12:40:12.860Z,7.0077
2023-05-05T12:41:15.825Z,2.8000
2023-05-05T12:42:18.776Z,2.2692
2023-05-05T12:43:21.914Z,2.9538
2023-05-05T12:44:24.729Z,4.3000
2023-05-05T12:45:27.833Z,3.6385
2023-05-05T12:46:30.824Z,3.3077
2023-05-05T12:47:33.706Z,2.6538
2023-05-05T12:48:36.580Z,5.0000
2023-05-05T12:49:39.485Z,3.0385
2023-05-05T12:50:42.492Z,2.1308
2023-05-05T12:51:45.411Z,2.1000
2023-05-05T12:52:48.554Z,2.1846
2023-05-05T12:53:51.398Z,1.8615
2023-05-05T12:54:55.007Z,2.0615
2023-05-05T12:55:57.378Z,2.2308
2023-05-05T12:57:00.214Z,4.2385
2023-05-05T12:58:03.176Z,16.0462
2023-05-05T12:59:06.254Z,4.6385
2023-05-05T13:00:09.241Z,2.6154
2023-05-05T13:01:12.042Z,1.5385
2023-05-05T13:02:15.059Z,1.6769
2023-05-05T13:03:18.029Z,1.6692
2023-05-05T13:04:20.932Z,1.5385
2023-05-05T13:05:23.901Z,1.6077